createdAt,value
2019-03-12T00:00:41.038Z,75.69
2019-03-12T00:03:09.507Z,75.81
2019-03-12T00:05:38.251Z,76.05
2019-03-12T00:08:06.675Z,76.11
2019-03-12T00:10:35.109Z,76.13
2019-03-12T00:13:03.906Z,76.13
2019-03-12T00:15:32.378Z,75.78
2019-03-12T00:18:00.808Z,75.81
2019-03-12T00:20:29.530Z,75.54
2019-03-12T00:22:57.973Z,75.44
2019-03-12T00:25:26.427Z,75.34
2019-03-12T00:27:54.891Z,75.09
2019-03-12T00:30:23.394Z,75.01
2019-03-12T00:32:51.834Z,75.01
2019-03-12T00:35:20.308Z,74.87
2019-03-12T00:37:48.873Z,74.90
2019-03-12T00:40:17.306Z,74.78
2019-03-12T00:42:45.790Z,75.06
2019-03-12T00:45:14.289Z,74.91
2019-03-12T00:47:42.716Z,74.83
2019-03-12T00:50:12.417Z,74.90
2019-03-12T00:52:40.838Z,74.94
2019-03-12T00:55:09.953Z,75.00
2019-03-12T00:57:38.398Z,74.52
2019-03-12T01:00:12.768Z,74.61
2019-03-12T01:02:41.200Z,74.61
2019-03-12T01:05:09.692Z,74.69
2019-03-12T01:07:38.175Z,74.62
2019-03-12T01:10:09.701Z,74.88
2019-03-12T01:12:38.494Z,74.88
2019-03-12T01:15:09.362Z,74.65
2019-03-12T01:17:37.806Z,74.71
2019-03-12T01:20:12.285Z,74.71
2019-03-12T01:22:40.708Z,74.63
2019-03-12T01:25:10.518Z,74.70
2019-03-12T01:27:38.941Z,74.69
2019-03-12T01:30:10.937Z,74.56
2019-03-12T01:32:39.640Z,74.53
2019-03-12T01:35:08.530Z,74.74
2019-03-12T01:37:37.305Z,74.74
2019-03-12T01:40:08.894Z,74.69
2019-03-12T01:42:37.645Z,74.52
2019-03-12T01:45:08.829Z,74.64
2019-03-12T01:47:37.403Z,74.61
2019-03-12T01:50:09.002Z,74.63
2019-03-12T01:52:37.427Z,74.54
2019-03-12T01:55:09.200Z,74.69
2019-03-12T01:57:37.627Z,74.69
2019-03-12T02:00:09.105Z,74.85
2019-03-12T02:02:37.544Z,74.85
2019-03-12T02:05:06.310Z,74.82
2019-03-12T02:07:35.054Z,74.61
2019-03-12T02:10:04.437Z,74.76
2019-03-12T02:12:32.881Z,74.76
2019-03-12T02:15:01.407Z,74.65
2019-03-12T02:17:29.801Z,74.57
2019-03-12T02:19:58.411Z,74.67
2019-03-12T02:22:26.903Z,74.81
2019-03-12T02:24:55.348Z,74.99
2019-03-12T02:27:23.992Z,74.90
2019-03-12T02:29:52.482Z,74.90
2019-03-12T02:32:20.933Z,74.79
2019-03-12T02:34:49.414Z,74.92
2019-03-12T02:37:17.877Z,74.87
2019-03-12T02:39:46.396Z,74.85
2019-03-12T02:42:14.876Z,74.79
2019-03-12T02:44:43.502Z,74.72
2019-03-12T02:47:11.929Z,74.75
2019-03-12T02:49:40.359Z,74.80
2019-03-12T02:52:09.067Z,74.99
2019-03-12T02:54:37.955Z,75.11
2019-03-12T02:57:06.565Z,75.13
2019-03-12T02:59:34.973Z,75.05
2019-03-12T03:02:03.416Z,75.19
2019-03-12T03:04:32.310Z,75.42
2019-03-12T03:07:05.075Z,75.43
2019-03-12T03:09:33.520Z,75.35
2019-03-12T03:12:01.957Z,75.31
2019-03-12T03:14:33.029Z,75.08
2019-03-12T03:17:01.501Z,75.14
2019-03-12T03:19:29.931Z,74.73
2019-03-12T03:21:58.430Z,75.15
2019-03-12T03:24:26.979Z,75.15
2019-03-12T03:26:55.403Z,74.91
2019-03-12T03:29:24.052Z,75.03
2019-03-12T03:31:52.658Z,75.46
2019-03-12T03:34:27.300Z,75.46
2019-03-12T03:36:51.205Z,75.74
2019-03-12T03:39:19.732Z,75.91
2019-03-12T03:41:48.233Z,75.94
2019-03-12T03:44:16.957Z,75.89
2019-03-12T03:46:45.740Z,76.04
2019-03-12T03:49:14.167Z,76.04
2019-03-12T03:51:42.598Z,76.19
2019-03-12T03:54:11.058Z,76.35
2019-03-12T03:56:39.471Z,76.14
2019-03-12T03:59:07.986Z,75.94
2019-03-12T04:01:36.544Z,75.71
2019-03-12T04:04:05.059Z,75.51
2019-03-12T04:06:34.310Z,75.90
2019-03-12T04:09:04.271Z,75.99
2019-03-12T04:11:32.799Z,76.13
2019-03-12T04:14:01.231Z,76.41
2019-03-12T04:16:29.763Z,76.40
2019-03-12T04:18:58.209Z,76.53
2019-03-12T04:21:26.637Z,76.59
2019-03-12T04:23:55.081Z,76.72
2019-03-12T04:26:23.536Z,76.80
2019-03-12T04:28:51.957Z,76.90
2019-03-12T04:31:20.529Z,77.09
2019-03-12T04:33:55.156Z,77.07
2019-03-12T04:36:23.592Z,76.96
2019-03-12T04:38:52.045Z,76.87
2019-03-12T04:41:20.484Z,76.84
2019-03-12T04:43:48.925Z,76.87
2019-03-12T04:46:17.543Z,76.96
2019-03-12T04:48:45.982Z,76.88
2019-03-12T04:51:14.604Z,76.87
2019-03-12T04:53:43.046Z,76.83
2019-03-12T04:56:11.635Z,76.85
2019-03-12T04:58:40.149Z,76.79
2019-03-12T05:01:08.577Z,76.66
2019-03-12T05:03:37.331Z,76.66
2019-03-12T05:06:06.123Z,76.50
2019-03-12T05:08:34.636Z,76.52
2019-03-12T05:11:03.071Z,76.43
2019-03-12T05:13:31.490Z,76.40
2019-03-12T05:16:00.243Z,76.48
2019-03-12T05:18:28.842Z,76.46
2019-03-12T05:20:57.335Z,76.39
2019-03-12T05:23:25.924Z,76.49
2019-03-12T05:25:54.350Z,76.46
2019-03-12T05:28:22.790Z,76.49
2019-03-12T05:30:51.227Z,76.45
2019-03-12T05:33:19.679Z,76.33
2019-03-12T05:35:48.386Z,76.30
2019-03-12T05:38:16.823Z,76.28
2019-03-12T05:40:45.259Z,76.24
2019-03-12T05:43:13.761Z,76.05
2019-03-12T05:45:42.191Z,76.02
2019-03-12T05:48:10.614Z,75.99
2019-03-12T05:50:39.072Z,75.89
2019-03-12T05:53:16.502Z,75.92
2019-03-12T05:55:44.959Z,75.89
2019-03-12T05:58:13.395Z,75.85
2019-03-12T06:00:41.826Z,75.76
2019-03-12T06:03:10.325Z,75.79
2019-03-12T06:05:38.781Z,75.75
2019-03-12T06:08:07.210Z,75.83
2019-03-12T06:10:35.692Z,75.93
2019-03-12T06:13:04.127Z,75.88
2019-03-12T06:15:32.646Z,75.93
2019-03-12T06:18:01.117Z,75.92
2019-03-12T06:20:29.553Z,75.81
2019-03-12T06:22:57.975Z,75.63
2019-03-12T06:25:26.453Z,75.39
2019-03-12T06:27:54.927Z,75.04
2019-03-12T06:30:25.880Z,74.66
2019-03-12T06:32:55.139Z,74.24
2019-03-12T06:35:34.320Z,74.09
2019-03-12T06:38:21.352Z,73.97
2019-03-12T06:41:09.606Z,73.79
2019-03-12T06:43:39.664Z,73.63
2019-03-12T06:46:12.249Z,73.52
2019-03-12T06:48:42.318Z,73.46
2019-03-12T06:51:21.517Z,73.39
2019-03-12T06:54:07.660Z,73.32
2019-03-12T06:56:40.763Z,73.37
2019-03-12T06:59:22.981Z,73.35
2019-03-12T07:01:58.764Z,73.28
2019-03-12T07:04:37.689Z,73.31
2019-03-12T07:07:11.402Z,73.17
2019-03-12T07:10:00.380Z,73.12
2019-03-12T07:12:33.042Z,72.95
2019-03-12T07:15:15.087Z,72.83
2019-03-12T07:17:50.855Z,72.88
2019-03-12T07:20:26.536Z,72.91
2019-03-12T07:23:12.397Z,72.78
2019-03-12T07:25:45.300Z,72.42
2019-03-12T07:28:26.994Z,72.42
2019-03-12T07:31:05.800Z,72.13
2019-03-12T07:33:51.716Z,71.89
2019-03-12T07:36:33.949Z,71.60
2019-03-12T07:39:20.054Z,71.33
2019-03-12T07:42:02.456Z,71.08
2019-03-12T07:44:41.132Z,71.15
2019-03-12T07:47:13.610Z,71.00
2019-03-12T07:49:49.720Z,71.28
2019-03-12T07:52:19.796Z,71.21
2019-03-12T07:54:49.851Z,70.86
2019-03-12T07:57:19.932Z,70.87
2019-03-12T07:59:52.528Z,70.94
2019-03-12T08:02:38.992Z,70.80
2019-03-12T08:05:09.742Z,70.86
2019-03-12T08:07:51.663Z,70.64
2019-03-12T08:10:37.514Z,70.59
2019-03-12T08:13:19.508Z,70.39
2019-03-12T08:15:58.524Z,70.39
2019-03-12T08:18:28.742Z,70.35
2019-03-12T08:21:22.243Z,70.38
2019-03-12T08:24:03.072Z,70.23
2019-03-12T08:26:33.168Z,70.13
2019-03-12T08:29:03.231Z,70.35
2019-03-12T08:31:33.513Z,70.21
2019-03-12T08:34:03.701Z,69.80
2019-03-12T08:36:33.861Z,69.68
2019-03-12T08:39:19.265Z,69.76
2019-03-12T08:42:04.261Z,69.66
2019-03-12T08:44:37.322Z,69.66
2019-03-12T08:47:08.109Z,67.14
2019-03-12T08:49:54.515Z,69.19
2019-03-12T08:52:27.291Z,69.12
2019-03-12T08:55:09.315Z,69.01
2019-03-12T08:57:39.386Z,69.22
2019-03-12T09:00:30.320Z,68.89
2019-03-12T09:03:06.103Z,68.86
2019-03-12T09:05:45.212Z,68.73
2019-03-12T09:08:18.112Z,68.89
2019-03-12T09:10:53.769Z,68.30
2019-03-12T09:13:26.505Z,68.09
2019-03-12T09:16:12.516Z,67.97
2019-03-12T09:19:01.079Z,67.25
2019-03-12T09:21:33.403Z,66.63
2019-03-12T09:24:18.323Z,66.34
2019-03-12T09:26:50.582Z,66.55
2019-03-12T09:29:26.583Z,63.30
2019-03-12T09:32:02.480Z,66.54
2019-03-12T09:34:38.319Z,66.75
2019-03-12T09:37:08.618Z,66.54
2019-03-12T09:39:53.292Z,66.76
2019-03-12T09:42:26.039Z,67.09
2019-03-12T09:45:12.266Z,67.00
2019-03-12T09:47:53.934Z,67.36
2019-03-12T09:50:24.123Z,67.17
2019-03-12T09:52:57.098Z,67.21
2019-03-12T09:55:29.747Z,67.09
2019-03-12T09:57:59.825Z,66.72
2019-03-12T10:00:29.970Z,66.35
2019-03-12T10:03:00.034Z,66.23
2019-03-12T10:05:32.756Z,66.02
2019-03-12T10:08:11.299Z,66.06
2019-03-12T10:10:50.059Z,65.91
2019-03-12T10:13:23.042Z,65.85
2019-03-12T10:16:02.062Z,66.28
2019-03-12T10:18:32.137Z,65.66
2019-03-12T10:21:02.207Z,66.00
2019-03-12T10:23:35.246Z,66.19
2019-03-12T10:26:11.190Z,65.88
2019-03-12T10:28:46.938Z,66.07
2019-03-12T10:31:28.775Z,65.71
2019-03-12T10:34:05.001Z,66.01
2019-03-12T10:36:35.121Z,65.82
2019-03-12T10:39:44.137Z,65.74
2019-03-12T10:42:16.818Z,65.41
2019-03-12T10:45:04.651Z,65.44
2019-03-12T10:47:40.426Z,65.25
2019-03-12T10:50:09.697Z,65.03
2019-03-12T10:52:38.143Z,65.26
2019-03-12T10:55:13.409Z,65.28
2019-03-12T10:57:38.612Z,65.74
2019-03-12T11:00:12.734Z,65.63
2019-03-12T11:02:41.183Z,65.55
2019-03-12T11:05:09.941Z,64.95
2019-03-12T11:07:38.335Z,64.76
2019-03-12T11:10:09.821Z,64.47
2019-03-12T11:12:38.267Z,64.30
2019-03-12T11:15:09.360Z,64.14
2019-03-12T11:17:48.754Z,63.56
2019-03-12T11:20:20.029Z,63.72
2019-03-12T11:22:48.533Z,63.72
2019-03-12T11:25:26.708Z,63.93
2019-03-12T11:27:47.320Z,64.24
2019-03-12T11:30:19.822Z,64.12
2019-03-12T11:32:48.526Z,64.54
2019-03-12T11:35:17.072Z,64.98
2019-03-12T11:37:45.581Z,65.28
2019-03-12T11:40:20.054Z,65.44
2019-03-12T11:42:48.513Z,65.75
2019-03-12T11:45:19.424Z,65.55
2019-03-12T11:47:47.405Z,65.58
2019-03-12T11:50:20.685Z,65.58
2019-03-12T11:52:56.282Z,65.45
2019-03-12T11:55:19.863Z,65.18
2019-03-12T11:57:48.615Z,64.91
2019-03-12T12:00:24.000Z,64.93
2019-03-12T12:02:59.902Z,64.64
2019-03-12T12:05:22.720Z,64.42
2019-03-12T12:07:51.199Z,64.43
2019-03-12T12:10:19.727Z,64.58
2019-03-12T12:12:48.422Z,64.32
2019-03-12T12:15:17.056Z,64.46
2019-03-12T12:17:45.564Z,64.28
2019-03-12T12:20:28.345Z,64.37
2019-03-12T12:22:45.306Z,64.28
2019-03-12T12:25:18.455Z,64.18
2019-03-12T12:27:47.141Z,64.31
2019-03-12T12:30:20.397Z,64.42
2019-03-12T12:32:48.862Z,64.45
2019-03-12T12:35:17.467Z,64.40
2019-03-12T12:37:45.925Z,64.48
2019-03-12T12:40:18.467Z,64.47
2019-03-12T12:42:47.029Z,64.17
2019-03-12T12:45:21.499Z,64.25
2019-03-12T12:47:50.014Z,64.12
2019-03-12T12:50:18.750Z,64.13
2019-03-12T12:52:47.211Z,63.85
2019-03-12T12:55:15.892Z,63.58
2019-03-12T12:57:44.413Z,63.48
2019-03-12T13:00:18.166Z,63.67
2019-03-12T13:02:46.647Z,63.64
2019-03-12T13:05:15.427Z,63.53
2019-03-12T13:07:44.058Z,63.81
2019-03-12T13:10:15.684Z,63.47
2019-03-12T13:12:46.438Z,62.89
2019-03-12T13:15:14.536Z,62.85
2019-03-12T13:17:42.954Z,63.29
2019-03-12T13:20:12.057Z,63.10
2019-03-12T13:22:40.497Z,62.63
2019-03-12T13:25:17.202Z,62.63
2019-03-12T13:27:45.631Z,62.69
2019-03-12T13:30:21.403Z,62.77
2019-03-12T13:32:49.987Z,62.69
2019-03-12T13:35:19.226Z,62.65
2019-03-12T13:37:48.334Z,62.86
2019-03-12T13:40:24.974Z,62.74
2019-03-12T13:42:53.657Z,63.04
2019-03-12T13:45:27.863Z,62.88
2019-03-12T13:47:56.669Z,63.12
2019-03-12T13:50:25.661Z,63.19
2019-03-12T13:52:54.165Z,62.77
2019-03-12T13:55:22.725Z,62.81
2019-03-12T13:57:51.322Z,62.90
2019-03-12T14:00:21.286Z,63.09
2019-03-12T14:02:49.951Z,63.01
2019-03-12T14:05:18.564Z,62.99
2019-03-12T14:07:47.187Z,63.21
2019-03-12T14:10:18.525Z,63.06
2019-03-12T14:12:47.325Z,63.10
2019-03-12T14:15:24.879Z,63.19
2019-03-12T14:17:53.321Z,63.15
2019-03-12T14:20:45.218Z,62.78
2019-03-12T14:23:22.283Z,62.87
2019-03-12T14:25:51.299Z,62.72
2019-03-12T14:28:19.730Z,62.71
2019-03-12T14:30:48.535Z,62.75
2019-03-12T14:33:16.950Z,63.00
2019-03-12T14:35:51.357Z,62.82
2019-03-12T14:38:16.033Z,62.33
2019-03-12T14:40:44.535Z,62.50
2019-03-12T14:43:12.965Z,62.53
2019-03-12T14:45:49.256Z,62.51
2019-03-12T14:48:43.228Z,62.49
2019-03-12T14:51:14.693Z,62.42
2019-03-12T14:53:45.382Z,62.25
2019-03-12T14:56:13.867Z,62.03
2019-03-12T14:58:42.237Z,61.70
2019-03-12T15:01:10.864Z,61.79
2019-03-12T15:03:39.295Z,61.61
2019-03-12T15:06:07.939Z,62.00
2019-03-12T15:08:36.496Z,61.91
2019-03-12T15:11:05.140Z,61.60
2019-03-12T15:13:33.640Z,61.62
2019-03-12T15:16:02.015Z,62.10
2019-03-12T15:18:30.470Z,61.99
2019-03-12T15:20:58.930Z,62.27
2019-03-12T15:23:27.357Z,62.39
2019-03-12T15:25:55.843Z,62.45
2019-03-12T15:28:24.352Z,62.70
2019-03-12T15:30:52.816Z,62.48
2019-03-12T15:33:21.324Z,62.22
2019-03-12T15:35:49.923Z,61.84
2019-03-12T15:38:18.384Z,61.87
2019-03-12T15:40:47.085Z,61.79
2019-03-12T15:43:15.843Z,61.77
2019-03-12T15:45:44.287Z,61.67
2019-03-12T15:48:12.727Z,61.63
2019-03-12T15:50:41.212Z,61.39
2019-03-12T15:53:09.652Z,61.71
2019-03-12T15:55:38.234Z,61.55
2019-03-12T15:58:06.788Z,61.47
2019-03-12T16:00:35.260Z,61.50
2019-03-12T16:03:03.882Z,61.56
2019-03-12T16:05:32.380Z,61.66
2019-03-12T16:08:00.851Z,61.89
2019-03-12T16:10:29.375Z,61.71
2019-03-12T16:12:57.807Z,61.82
2019-03-12T16:15:26.281Z,61.67
2019-03-12T16:17:54.728Z,60.92
2019-03-12T16:20:23.849Z,61.05
2019-03-12T16:22:52.309Z,61.19
2019-03-12T16:25:20.732Z,61.15
2019-03-12T16:27:49.187Z,61.39
2019-03-12T16:30:19.001Z,61.17
2019-03-12T16:32:49.593Z,61.05
2019-03-12T16:35:17.625Z,61.14
2019-03-12T16:37:46.049Z,61.05
2019-03-12T16:40:18.721Z,60.83
2019-03-12T16:42:47.205Z,61.03
2019-03-12T16:45:19.896Z,61.22
2019-03-12T16:47:48.314Z,60.91
2019-03-12T16:50:17.799Z,61.14
2019-03-12T16:52:46.407Z,61.04
2019-03-12T16:55:19.494Z,61.11
2019-03-12T16:57:47.926Z,61.13
2019-03-12T17:00:21.619Z,60.87
2019-03-12T17:02:50.080Z,60.73
2019-03-12T17:05:18.509Z,60.74
2019-03-12T17:07:46.969Z,60.76
2019-03-12T17:10:17.177Z,60.81
2019-03-12T17:12:45.998Z,60.96
2019-03-12T17:15:29.232Z,60.89
2019-03-12T17:17:57.849Z,60.77
2019-03-12T17:20:26.294Z,60.71
2019-03-12T17:22:54.744Z,60.47
2019-03-12T17:25:23.223Z,60.21
2019-03-12T17:27:52.095Z,59.99
2019-03-12T17:30:23.797Z,60.12
2019-03-12T17:32:52.356Z,60.33
2019-03-12T17:35:23.639Z,60.61
2019-03-12T17:37:52.073Z,60.75
2019-03-12T17:40:22.222Z,60.72
2019-03-12T17:42:50.713Z,60.54
2019-03-12T17:45:19.169Z,60.60
2019-03-12T17:47:47.625Z,60.64
2019-03-12T17:50:16.255Z,60.65
2019-03-12T17:52:44.645Z,60.78
2019-03-12T17:55:14.237Z,61.00
2019-03-12T17:57:42.942Z,60.94
2019-03-12T18:00:17.198Z,60.86
2019-03-12T18:02:45.716Z,60.80
2019-03-12T18:05:14.525Z,60.64
2019-03-12T18:07:43.499Z,60.80
2019-03-12T18:10:14.400Z,60.90
2019-03-12T18:12:42.954Z,60.64
2019-03-12T18:15:19.608Z,60.38
2019-03-12T18:17:48.708Z,60.30
2019-03-12T18:20:20.827Z,60.21
2019-03-12T18:22:49.267Z,60.04
2019-03-12T18:25:23.753Z,60.09
2019-03-12T18:27:52.187Z,59.30
2019-03-12T18:30:20.749Z,59.09
2019-03-12T18:32:49.184Z,59.59
2019-03-12T18:35:18.281Z,59.48
2019-03-12T18:37:47.040Z,59.33
2019-03-12T18:40:23.306Z,58.74
2019-03-12T18:42:51.750Z,58.67
2019-03-12T18:45:25.021Z,58.91
2019-03-12T18:47:53.543Z,58.95
2019-03-12T18:50:22.124Z,58.89
2019-03-12T18:52:50.552Z,58.19
2019-03-12T18:55:31.079Z,58.28
2019-03-12T18:57:59.521Z,58.26
2019-03-12T19:00:28.219Z,58.03
2019-03-12T19:02:56.685Z,57.79
2019-03-12T19:05:28.020Z,57.36
2019-03-12T19:07:55.482Z,57.46
2019-03-12T19:10:24.205Z,57.59
2019-03-12T19:12:52.671Z,57.40
2019-03-12T19:15:21.099Z,57.74
2019-03-12T19:17:50.167Z,57.08
2019-03-12T19:20:19.863Z,56.86
2019-03-12T19:22:48.318Z,57.01
2019-03-12T19:25:31.826Z,57.23
2019-03-12T19:28:00.719Z,56.79
2019-03-12T19:30:29.212Z,56.86
2019-03-12T19:33:02.015Z,57.20
2019-03-12T19:35:32.482Z,56.49
2019-03-12T19:38:01.896Z,56.28
2019-03-12T19:40:36.331Z,56.63
2019-03-12T19:43:05.043Z,56.22
2019-03-12T19:45:33.541Z,56.50
2019-03-12T19:48:01.999Z,56.27
2019-03-12T19:50:30.661Z,56.57
2019-03-12T19:52:59.277Z,56.39
2019-03-12T19:55:33.692Z,56.18
2019-03-12T19:58:02.131Z,55.68
2019-03-12T20:00:31.611Z,55.58
2019-03-12T20:03:10.276Z,55.69
2019-03-12T20:05:30.204Z,55.77
2019-03-12T20:07:58.680Z,55.67
2019-03-12T20:11:05.266Z,54.70
2019-03-12T20:14:09.906Z,54.77
2019-03-12T20:17:08.570Z,54.74
2019-03-12T20:19:56.663Z,54.76
2019-03-12T20:22:28.150Z,54.98
2019-03-12T20:25:33.198Z,54.93
2019-03-12T20:28:26.126Z,54.95
2019-03-12T20:31:15.436Z,55.17
2019-03-12T20:34:06.696Z,54.69
2019-03-12T20:37:01.180Z,54.27
2019-03-12T20:40:06.071Z,54.29
2019-03-12T20:43:12.051Z,54.19
2019-03-12T20:46:09.065Z,53.93
2019-03-12T20:49:12.769Z,53.89
2019-03-12T20:52:05.516Z,54.02
2019-03-12T20:55:06.935Z,53.68
2019-03-12T20:57:43.239Z,54.17
2019-03-12T21:00:49.578Z,54.21
2019-03-12T21:03:25.106Z,54.10
2019-03-12T21:06:30.263Z,54.45
2019-03-12T21:09:30.608Z,54.36
2019-03-12T21:12:37.401Z,54.40
2019-03-12T21:15:20.475Z,54.11
2019-03-12T21:18:20.225Z,54.29
2019-03-12T21:21:23.766Z,53.73
2019-03-12T21:24:14.568Z,53.83
2019-03-12T21:26:54.601Z,53.57
2019-03-12T21:29:42.570Z,53.12
2019-03-12T21:32:20.358Z,53.35
2019-03-12T21:34:49.143Z,53.34
2019-03-12T21:37:17.634Z,53.15
2019-03-12T21:39:55.274Z,53.34
2019-03-12T21:42:16.540Z,53.06
2019-03-12T21:44:45.045Z,53.70
2019-03-12T21:47:13.518Z,53.86
2019-03-12T21:49:42.026Z,53.97
2019-03-12T21:52:10.469Z,54.19
2019-03-12T21:54:39.103Z,54.45
2019-03-12T21:57:07.725Z,54.73
2019-03-12T21:59:36.229Z,54.66
2019-03-12T22:02:04.669Z,54.95
2019-03-12T22:04:33.172Z,54.89
2019-03-12T22:07:01.598Z,54.92
2019-03-12T22:09:30.528Z,55.20
2019-03-12T22:11:58.948Z,55.11
2019-03-12T22:14:27.580Z,54.80
2019-03-12T22:16:56.522Z,54.82
2019-03-12T22:19:25.378Z,54.67
2019-03-12T22:21:55.450Z,54.91
2019-03-12T22:24:23.911Z,55.18
2019-03-12T22:26:52.335Z,55.23
2019-03-12T22:29:20.772Z,55.64
2019-03-12T22:31:49.236Z,55.94
2019-03-12T22:34:17.879Z,56.19
2019-03-12T22:36:46.431Z,56.31
2019-03-12T22:39:14.831Z,56.57
2019-03-12T22:41:43.251Z,56.78
2019-03-12T22:44:11.712Z,56.83
2019-03-12T22:46:40.283Z,57.02
2019-03-12T22:49:08.717Z,57.26
2019-03-12T22:51:37.136Z,57.32
2019-03-12T22:54:05.573Z,57.37
2019-03-12T22:56:34.097Z,57.48
2019-03-12T22:59:02.547Z,57.59
2019-03-12T23:01:30.997Z,57.62
2019-03-12T23:03:59.455Z,57.52
2019-03-12T23:06:28.902Z,57.33
2019-03-12T23:08:57.957Z,57.44
2019-03-12T23:11:26.661Z,57.24
2019-03-12T23:13:55.098Z,57.17
2019-03-12T23:16:23.562Z,57.25
2019-03-12T23:18:52.015Z,57.23
2019-03-12T23:21:20.582Z,57.21
2019-03-12T23:23:49.118Z,57.06
2019-03-12T23:26:17.559Z,57.04
2019-03-12T23:28:46.045Z,56.87
2019-03-12T23:31:14.523Z,56.75
2019-03-12T23:33:43.113Z,56.85
2019-03-12T23:36:12.414Z,56.69
2019-03-12T23:38:40.954Z,56.62
2019-03-12T23:41:09.500Z,56.84
2019-03-12T23:43:37.880Z,59.14
2019-03-12T23:46:06.330Z,61.90
2019-03-12T23:48:34.760Z,63.49
2019-03-12T23:51:03.246Z,64.21
2019-03-12T23:53:31.767Z,64.72
2019-03-12T23:56:00.319Z,64.99
2019-03-12T23:58:30.649Z,65.05
